createdAt,value
2018-11-05T00:00:19.166Z,11.10
2018-11-05T00:02:48.856Z,13.13
2018-11-05T00:05:17.115Z,11.90
2018-11-05T00:07:45.567Z,11.83
2018-11-05T00:10:13.835Z,10.93
2018-11-05T00:12:42.180Z,11.80
2018-11-05T00:15:10.564Z,12.67
2018-11-05T00:17:39.275Z,11.60
2018-11-05T00:20:08.657Z,12.03
2018-11-05T00:22:36.929Z,11.57
2018-11-05T00:25:05.925Z,11.57
2018-11-05T00:27:34.208Z,12.03
2018-11-05T00:30:02.589Z,11.30
2018-11-05T00:32:30.919Z,11.00
2018-11-05T00:34:59.235Z,11.30
2018-11-05T00:37:27.593Z,11.20
2018-11-05T00:39:55.903Z,13.00
2018-11-05T00:42:24.262Z,11.10
2018-11-05T00:44:52.642Z,12.10
2018-11-05T00:47:20.916Z,10.83
2018-11-05T00:49:49.660Z,11.87
2018-11-05T00:52:17.070Z,11.03
2018-11-05T00:54:45.340Z,12.03
2018-11-05T00:57:13.624Z,11.50
2018-11-05T00:59:41.911Z,13.30
2018-11-05T01:02:10.333Z,12.10
2018-11-05T01:04:38.767Z,12.33
2018-11-05T01:07:07.339Z,12.90
2018-11-05T01:09:35.745Z,14.93
2018-11-05T01:12:04.187Z,13.10
2018-11-05T01:14:32.563Z,12.60
2018-11-05T01:17:00.891Z,12.33
2018-11-05T01:19:29.355Z,14.10
2018-11-05T01:21:57.776Z,12.30
2018-11-05T01:24:26.515Z,12.33
2018-11-05T01:26:54.980Z,12.40
2018-11-05T01:29:23.463Z,12.37
2018-11-05T01:31:51.751Z,11.27
2018-11-05T01:34:20.128Z,13.00
2018-11-05T01:36:48.527Z,13.20
2018-11-05T01:39:16.907Z,12.70
2018-11-05T01:41:45.286Z,12.67
2018-11-05T01:44:13.588Z,13.47
2018-11-05T01:46:41.929Z,12.97
2018-11-05T01:49:10.318Z,11.70
2018-11-05T01:51:38.678Z,18.53
2018-11-05T01:54:07.203Z,13.70
2018-11-05T01:56:35.546Z,12.03
2018-11-05T01:59:03.896Z,11.63
2018-11-05T02:01:32.371Z,11.30
2018-11-05T02:04:00.649Z,13.33
2018-11-05T02:06:29.002Z,12.40
2018-11-05T02:08:57.319Z,12.50
2018-11-05T02:11:25.592Z,13.47
2018-11-05T02:13:53.893Z,14.30
2018-11-05T02:16:22.135Z,12.77
2018-11-05T02:18:50.476Z,13.30
2018-11-05T02:21:18.772Z,13.70
2018-11-05T02:23:47.099Z,13.00
2018-11-05T02:26:15.436Z,13.67
2018-11-05T02:28:44.313Z,13.33
2018-11-05T02:31:12.668Z,12.53
2018-11-05T02:33:40.960Z,12.80
2018-11-05T02:36:09.240Z,13.93
2018-11-05T02:38:37.707Z,13.80
2018-11-05T02:41:06.531Z,12.27
2018-11-05T02:43:34.935Z,13.40
2018-11-05T02:46:03.256Z,12.80
2018-11-05T02:48:31.670Z,12.93
2018-11-05T02:50:59.982Z,13.40
2018-11-05T02:53:28.223Z,13.73
2018-11-05T02:55:56.501Z,13.40
2018-11-05T02:58:27.125Z,13.50
2018-11-05T03:00:56.281Z,14.40
2018-11-05T03:03:24.597Z,13.90
2018-11-05T03:05:52.904Z,13.37
2018-11-05T03:08:21.208Z,13.83
2018-11-05T03:10:49.654Z,13.27
2018-11-05T03:13:17.899Z,14.13
2018-11-05T03:15:46.216Z,12.83
2018-11-05T03:18:14.790Z,13.40
2018-11-05T03:20:43.182Z,14.33
2018-11-05T03:23:11.515Z,14.03
2018-11-05T03:25:39.791Z,14.43
2018-11-05T03:28:08.124Z,13.57
2018-11-05T03:30:36.480Z,13.90
2018-11-05T03:33:05.032Z,12.97
2018-11-05T03:35:33.315Z,13.13
2018-11-05T03:38:01.585Z,13.40
2018-11-05T03:40:29.895Z,13.23
2018-11-05T03:42:58.208Z,13.87
2018-11-05T03:45:26.519Z,14.00
2018-11-05T03:47:54.818Z,15.27
2018-11-05T03:50:23.117Z,14.40
2018-11-05T03:52:51.575Z,14.20
2018-11-05T03:55:19.913Z,13.27
2018-11-05T03:57:48.153Z,13.23
2018-11-05T04:00:17.553Z,14.70
2018-11-05T04:02:45.959Z,13.90
2018-11-05T04:05:14.297Z,13.70
2018-11-05T04:07:42.619Z,12.87
2018-11-05T04:10:12.163Z,14.77
2018-11-05T04:12:40.451Z,15.10
2018-11-05T04:15:09.098Z,14.20
2018-11-05T04:17:37.386Z,12.57
2018-11-05T04:20:07.556Z,15.40
2018-11-05T04:22:35.893Z,14.77
2018-11-05T04:25:04.408Z,13.80
2018-11-05T04:27:32.813Z,15.10
2018-11-05T04:30:01.078Z,14.77
2018-11-05T04:32:29.361Z,14.30
2018-11-05T04:34:58.842Z,14.47
2018-11-05T04:37:27.136Z,14.20
2018-11-05T04:39:55.402Z,16.73
2018-11-05T04:42:23.664Z,15.50
2018-11-05T04:44:52.072Z,15.60
2018-11-05T04:47:20.433Z,17.00
2018-11-05T04:49:48.755Z,15.33
2018-11-05T04:52:17.211Z,16.27
2018-11-05T04:54:45.512Z,15.80
2018-11-05T04:57:13.810Z,16.73
2018-11-05T04:59:42.063Z,17.37
2018-11-05T05:02:10.323Z,15.43
2018-11-05T05:04:38.639Z,17.00
2018-11-05T05:07:07.203Z,16.00
2018-11-05T05:09:35.497Z,14.57
2018-11-05T05:12:03.826Z,15.67
2018-11-05T05:14:32.180Z,16.23
2018-11-05T05:17:00.471Z,16.93
2018-11-05T05:19:28.872Z,17.50
2018-11-05T05:21:57.180Z,16.03
2018-11-05T05:24:25.526Z,16.30
2018-11-05T05:26:53.931Z,16.60
2018-11-05T05:29:22.279Z,16.10
2018-11-05T05:31:50.615Z,17.17
2018-11-05T05:34:18.940Z,16.03
2018-11-05T05:36:47.324Z,17.03
2018-11-05T05:39:15.698Z,17.53
2018-11-05T05:41:43.977Z,17.30
2018-11-05T05:44:12.263Z,17.40
2018-11-05T05:46:40.525Z,18.63
2018-11-05T05:49:08.844Z,17.17
2018-11-05T05:51:37.143Z,18.90
2018-11-05T05:54:05.652Z,17.80
2018-11-05T05:56:33.826Z,16.93
2018-11-05T05:59:02.109Z,17.83
2018-11-05T06:01:30.381Z,17.30
2018-11-05T06:03:58.663Z,18.30
2018-11-05T06:06:27.019Z,18.23
2018-11-05T06:08:55.336Z,17.80
2018-11-05T06:11:23.617Z,19.00
2018-11-05T06:13:51.990Z,17.13
2018-11-05T06:16:20.280Z,18.43
2018-11-05T06:18:48.558Z,17.50
2018-11-05T06:21:16.857Z,18.23
2018-11-05T06:23:45.120Z,20.27
2018-11-05T06:26:13.371Z,16.97
2018-11-05T06:28:41.915Z,20.00
2018-11-05T06:31:10.134Z,20.23
2018-11-05T06:33:38.409Z,18.43
2018-11-05T06:36:06.692Z,18.63
2018-11-05T06:38:34.968Z,19.73
2018-11-05T06:41:03.373Z,21.10
2018-11-05T06:43:31.589Z,19.80
2018-11-05T06:45:59.971Z,20.90
2018-11-05T06:48:28.280Z,20.33
2018-11-05T06:50:56.622Z,20.53
2018-11-05T06:53:24.893Z,20.30
2018-11-05T06:55:53.208Z,20.00
2018-11-05T06:58:21.484Z,20.33
2018-11-05T07:00:49.857Z,20.57
2018-11-05T07:03:18.218Z,19.83
2018-11-05T07:05:46.477Z,21.53
2018-11-05T07:08:14.797Z,20.10
2018-11-05T07:10:43.127Z,18.60
2018-11-05T07:13:11.457Z,19.17
2018-11-05T07:15:39.835Z,19.33
2018-11-05T07:18:08.164Z,19.20
2018-11-05T07:20:36.483Z,19.43
2018-11-05T07:23:04.972Z,20.73
2018-11-05T07:25:33.342Z,20.60
2018-11-05T07:28:01.837Z,19.37
2018-11-05T07:30:30.111Z,19.83
2018-11-05T07:32:59.074Z,19.70
2018-11-05T07:35:27.435Z,19.67
2018-11-05T07:37:55.722Z,19.20
2018-11-05T07:40:24.130Z,20.57
2018-11-05T07:42:52.360Z,18.43
2018-11-05T07:45:22.831Z,18.73
2018-11-05T07:47:51.167Z,19.70
2018-11-05T07:50:20.383Z,20.70
2018-11-05T07:52:48.853Z,22.63
2018-11-05T07:55:18.231Z,20.07
2018-11-05T07:57:47.419Z,20.80
2018-11-05T08:00:21.503Z,20.70
2018-11-05T08:02:51.566Z,19.90
2018-11-05T08:05:20.728Z,19.87
2018-11-05T08:07:49.323Z,19.50
2018-11-05T08:10:17.734Z,18.97
2018-11-05T08:12:46.163Z,21.27
2018-11-05T08:15:16.788Z,20.23
2018-11-05T08:17:46.259Z,19.70
2018-11-05T08:20:14.586Z,20.67
2018-11-05T08:22:42.875Z,19.10
2018-11-05T08:25:12.117Z,18.67
2018-11-05T08:27:40.458Z,19.30
2018-11-05T08:30:11.068Z,19.67
2018-11-05T08:32:39.461Z,21.37
2018-11-05T08:35:08.630Z,20.80
2018-11-05T08:37:36.968Z,20.53
2018-11-05T08:40:08.912Z,20.70
2018-11-05T08:42:37.168Z,22.60
2018-11-05T08:45:05.655Z,21.13
2018-11-05T08:47:34.032Z,20.23
2018-11-05T08:50:02.435Z,20.20
2018-11-05T08:52:30.785Z,20.20
2018-11-05T08:54:59.134Z,20.30
2018-11-05T08:57:27.464Z,19.83
2018-11-05T08:59:55.777Z,20.33
2018-11-05T09:02:24.076Z,19.90
2018-11-05T09:04:52.343Z,19.70
2018-11-05T09:07:20.909Z,20.73
2018-11-05T09:09:49.334Z,20.57
2018-11-05T09:12:17.613Z,19.37
2018-11-05T09:14:46.289Z,19.73
2018-11-05T09:17:14.659Z,21.30
2018-11-05T09:19:43.027Z,20.90
2018-11-05T09:22:12.626Z,20.00
2018-11-05T09:24:40.935Z,20.10
2018-11-05T09:27:09.256Z,20.47
2018-11-05T09:29:37.520Z,19.40
2018-11-05T09:32:06.104Z,19.40
2018-11-05T09:34:34.499Z,19.40
2018-11-05T09:37:02.849Z,21.20
2018-11-05T09:39:31.247Z,18.33
2018-11-05T09:41:59.590Z,20.97
2018-11-05T09:44:27.931Z,19.47
2018-11-05T09:46:56.292Z,19.63
2018-11-05T09:49:24.604Z,20.40
2018-11-05T09:51:52.968Z,19.47
2018-11-05T09:54:21.316Z,21.50
2018-11-05T09:56:49.645Z,19.97
2018-11-05T09:59:17.970Z,20.20
2018-11-05T10:01:46.259Z,19.40
2018-11-05T10:04:14.829Z,19.40
2018-11-05T10:06:42.988Z,20.17
2018-11-05T10:09:12.940Z,19.30
2018-11-05T10:11:41.262Z,18.33
2018-11-05T10:14:09.560Z,21.07
2018-11-05T10:16:37.913Z,20.57
2018-11-05T10:19:06.296Z,20.73
2018-11-05T10:21:34.674Z,20.73
2018-11-05T10:24:03.058Z,20.90
2018-11-05T10:26:31.329Z,19.07
2018-11-05T10:28:59.660Z,22.70
2018-11-05T10:31:28.807Z,20.50
2018-11-05T10:33:57.141Z,20.43
2018-11-05T10:36:25.464Z,21.10
2018-11-05T10:38:53.788Z,18.73
2018-11-05T10:41:22.157Z,18.90
2018-11-05T10:43:50.499Z,21.90
2018-11-05T10:46:18.922Z,22.47
2018-11-05T10:48:47.132Z,19.70
2018-11-05T10:51:15.561Z,21.33
2018-11-05T10:53:43.850Z,20.07
2018-11-05T10:56:12.203Z,20.60
2018-11-05T10:58:40.499Z,19.20
2018-11-05T11:01:13.506Z,20.07
2018-11-05T11:03:41.940Z,21.47
2018-11-05T11:06:10.853Z,19.67
2018-11-05T11:08:39.213Z,18.97
2018-11-05T11:11:07.515Z,20.07
2018-11-05T11:13:35.918Z,21.30
2018-11-05T11:16:04.282Z,21.13
2018-11-05T11:18:32.697Z,19.73
2018-11-05T11:21:01.042Z,19.67
2018-11-05T11:23:29.365Z,19.83
2018-11-05T11:25:58.288Z,20.10
2018-11-05T11:28:26.730Z,20.33
2018-11-05T11:30:55.042Z,20.57
2018-11-05T11:33:23.431Z,20.40
2018-11-05T11:35:51.837Z,20.23
2018-11-05T11:38:20.333Z,18.97
2018-11-05T11:40:48.897Z,19.70
2018-11-05T11:43:17.296Z,20.70
2018-11-05T11:45:45.661Z,19.07
2018-11-05T11:48:14.031Z,19.57
2018-11-05T11:50:42.472Z,19.67
2018-11-05T11:53:10.956Z,21.00
2018-11-05T11:55:39.236Z,20.07
2018-11-05T11:58:07.532Z,20.00
2018-11-05T12:00:35.910Z,20.30
2018-11-05T12:03:04.207Z,18.30
2018-11-05T12:05:32.622Z,19.37
2018-11-05T12:08:00.926Z,20.53
2018-11-05T12:10:29.272Z,19.43
2018-11-05T12:12:57.699Z,19.90
2018-11-05T12:15:26.048Z,20.13
2018-11-05T12:17:54.595Z,18.77
2018-11-05T12:20:24.294Z,19.57
2018-11-05T12:22:53.186Z,17.80
2018-11-05T12:25:21.845Z,18.93
2018-11-05T12:27:50.167Z,18.63
2018-11-05T12:30:19.859Z,19.70
2018-11-05T12:32:49.103Z,18.90
2018-11-05T12:35:17.423Z,18.80
2018-11-05T12:37:46.912Z,18.60
2018-11-05T12:40:16.477Z,20.97
2018-11-05T12:42:45.943Z,18.70
2018-11-05T12:45:14.360Z,18.63
2018-11-05T12:47:42.697Z,19.33
2018-11-05T12:50:14.604Z,18.30
2018-11-05T12:52:43.735Z,17.93
2018-11-05T12:55:12.234Z,30.90
2018-11-05T12:57:40.799Z,19.80
2018-11-05T13:00:11.211Z,19.80
2018-11-05T13:02:39.603Z,17.73
2018-11-05T13:05:08.911Z,17.63
2018-11-05T13:07:37.338Z,18.47
2018-11-05T13:10:07.932Z,17.00
2018-11-05T13:12:36.280Z,18.10
2018-11-05T13:15:05.569Z,20.30
2018-11-05T13:17:34.191Z,21.23
2018-11-05T13:20:02.491Z,20.57
2018-11-05T13:22:31.000Z,19.10
2018-11-05T13:24:59.300Z,21.27
2018-11-05T13:27:27.723Z,20.97
2018-11-05T13:30:07.621Z,18.73
2018-11-05T13:32:36.195Z,19.87
2018-11-05T13:35:05.242Z,18.07
2018-11-05T13:37:33.763Z,20.03
2018-11-05T13:40:01.848Z,19.70
2018-11-05T13:42:30.211Z,19.37
2018-11-05T13:44:58.658Z,18.80
2018-11-05T13:47:27.403Z,17.27
2018-11-05T13:49:55.351Z,19.50
2018-11-05T13:52:23.730Z,18.93
2018-11-05T13:54:52.420Z,20.10
2018-11-05T13:57:20.499Z,18.70
2018-11-05T13:59:48.817Z,21.97
2018-11-05T14:02:17.278Z,18.47
2018-11-05T14:04:45.612Z,20.30
2018-11-05T14:07:14.099Z,18.43
2018-11-05T14:09:42.420Z,18.40
2018-11-05T14:12:10.879Z,19.10
2018-11-05T14:14:39.348Z,19.53
2018-11-05T14:17:07.777Z,19.87
2018-11-05T14:19:36.194Z,18.90
2018-11-05T14:22:04.540Z,21.63
2018-11-05T14:24:32.948Z,19.70
2018-11-05T14:27:01.307Z,19.50
2018-11-05T14:29:30.164Z,19.63
2018-11-05T14:31:58.098Z,18.40
2018-11-05T14:34:26.594Z,19.83
2018-11-05T14:36:55.084Z,18.97
2018-11-05T14:39:23.297Z,19.60
2018-11-05T14:41:51.792Z,19.70
2018-11-05T14:44:20.301Z,20.77
2018-11-05T14:46:48.911Z,20.90
2018-11-05T14:49:17.401Z,20.33
2018-11-05T14:51:45.838Z,19.20
2018-11-05T14:54:14.288Z,20.77
2018-11-05T14:56:42.662Z,20.40
2018-11-05T14:59:11.111Z,19.90
2018-11-05T15:01:39.506Z,20.80
2018-11-05T15:04:07.929Z,20.17
2018-11-05T15:06:36.278Z,20.80
2018-11-05T15:09:06.651Z,19.33
2018-11-05T15:11:35.008Z,20.80
2018-11-05T15:14:03.376Z,20.13
2018-11-05T15:16:31.719Z,19.90
2018-11-05T15:19:00.371Z,20.70
2018-11-05T15:21:28.437Z,21.80
2018-11-05T15:23:56.708Z,18.57
2018-11-05T15:26:25.065Z,18.97
2018-11-05T15:28:53.450Z,19.80
2018-11-05T15:31:21.831Z,19.17
2018-11-05T15:33:50.419Z,18.00
2018-11-05T15:36:18.678Z,19.00
2018-11-05T15:38:46.997Z,17.50
2018-11-05T15:41:15.354Z,19.47
2018-11-05T15:43:43.756Z,19.40
2018-11-05T15:46:12.201Z,18.93
2018-11-05T15:48:40.698Z,20.53
2018-11-05T15:51:09.083Z,19.50
2018-11-05T15:53:37.644Z,20.87
2018-11-05T15:56:05.689Z,18.70
2018-11-05T15:58:34.097Z,19.60
2018-11-05T16:01:02.382Z,19.80
2018-11-05T16:03:30.786Z,21.27
2018-11-05T16:05:59.158Z,21.70
2018-11-05T16:08:27.587Z,21.50
2018-11-05T16:10:55.900Z,18.50
2018-11-05T16:13:24.338Z,20.60
2018-11-05T16:15:52.671Z,20.40
2018-11-05T16:18:21.065Z,21.00
2018-11-05T16:20:49.481Z,20.33
2018-11-05T16:23:17.879Z,20.37
2018-11-05T16:25:46.412Z,20.20
2018-11-05T16:28:14.789Z,20.33
2018-11-05T16:30:43.174Z,19.83
2018-11-05T16:33:11.484Z,19.03
2018-11-05T16:35:39.904Z,18.60
2018-11-05T16:38:08.416Z,20.33
2018-11-05T16:40:36.871Z,19.87
2018-11-05T16:43:05.286Z,21.30
2018-11-05T16:45:33.624Z,20.60
2018-11-05T16:48:02.022Z,20.53
2018-11-05T16:50:30.441Z,21.27
2018-11-05T16:52:58.836Z,21.03
2018-11-05T16:55:27.238Z,21.43
2018-11-05T16:57:55.669Z,21.30
2018-11-05T17:00:24.057Z,20.00
2018-11-05T17:02:52.487Z,21.03
2018-11-05T17:05:20.875Z,20.63
2018-11-05T17:07:49.378Z,23.10
2018-11-05T17:10:17.780Z,20.53
2018-11-05T17:12:46.180Z,21.37
2018-11-05T17:15:15.605Z,22.17
2018-11-05T17:17:44.302Z,22.13
2018-11-05T17:20:14.576Z,20.20
2018-11-05T17:22:43.516Z,23.03
2018-11-05T17:25:12.357Z,21.87
2018-11-05T17:27:41.019Z,22.20
2018-11-05T17:30:14.239Z,24.70
2018-11-05T17:32:44.042Z,25.50
2018-11-05T17:35:12.812Z,24.10
2018-11-05T17:37:41.310Z,25.23
2018-11-05T17:40:12.391Z,25.57
2018-11-05T17:42:41.277Z,24.50
2018-11-05T17:45:11.272Z,27.20
2018-11-05T17:47:39.904Z,27.77
2018-11-05T17:50:11.253Z,26.20
2018-11-05T17:52:39.907Z,28.33
2018-11-05T17:55:08.962Z,27.00
2018-11-05T17:57:37.333Z,26.30
2018-11-05T18:00:08.058Z,23.70
2018-11-05T18:02:36.497Z,21.90
2018-11-05T18:05:05.032Z,21.83
2018-11-05T18:07:33.369Z,22.00
2018-11-05T18:10:01.863Z,20.67
2018-11-05T18:12:30.211Z,22.70
2018-11-05T18:14:58.601Z,24.30
2018-11-05T18:17:26.973Z,20.00
2018-11-05T18:19:55.559Z,21.27
2018-11-05T18:22:24.064Z,19.97
2018-11-05T18:24:52.484Z,20.27
2018-11-05T18:27:20.841Z,21.20
2018-11-05T18:29:49.230Z,20.60
2018-11-05T18:32:21.485Z,20.20
2018-11-05T18:34:51.684Z,20.73
2018-11-05T18:37:20.208Z,21.00
2018-11-05T18:39:48.706Z,21.70
2018-11-05T18:42:17.058Z,19.70
2018-11-05T18:44:45.610Z,20.83
2018-11-05T18:47:14.053Z,20.03
2018-11-05T18:49:42.419Z,20.00
2018-11-05T18:52:11.053Z,18.73
2018-11-05T18:54:39.735Z,18.13
2018-11-05T18:57:08.643Z,20.27
2018-11-05T18:59:37.179Z,21.00
2018-11-05T19:02:05.825Z,20.53
2018-11-05T19:04:34.311Z,20.83
2018-11-05T19:07:03.208Z,20.30
2018-11-05T19:09:32.393Z,20.13
2018-11-05T19:12:00.649Z,20.93
2018-11-05T19:14:29.935Z,19.53
2018-11-05T19:16:58.346Z,21.90
2018-11-05T19:19:26.753Z,20.70
2018-11-05T19:21:55.123Z,21.73
2018-11-05T19:24:23.658Z,21.13
2018-11-05T19:26:51.889Z,21.47
2018-11-05T19:29:20.261Z,21.20
2018-11-05T19:31:48.677Z,20.03
2018-11-05T19:34:17.654Z,21.50
2018-11-05T19:36:46.091Z,20.07
2018-11-05T19:39:14.653Z,19.93
2018-11-05T19:41:43.259Z,20.60
2018-11-05T19:44:11.761Z,20.93
2018-11-05T19:46:40.297Z,19.93
2018-11-05T19:49:09.164Z,20.53
2018-11-05T19:51:37.697Z,19.93
2018-11-05T19:54:06.046Z,19.87
2018-11-05T19:56:34.456Z,20.00
2018-11-05T19:59:02.914Z,20.60
2018-11-05T20:01:31.375Z,21.40
2018-11-05T20:03:59.806Z,21.90
2018-11-05T20:06:28.186Z,21.70
2018-11-05T20:08:56.644Z,22.13
2018-11-05T20:11:25.050Z,22.87
2018-11-05T20:13:53.902Z,23.40
2018-11-05T20:16:22.393Z,20.90
2018-11-05T20:18:51.019Z,20.57
2018-11-05T20:21:19.554Z,20.03
2018-11-05T20:23:48.099Z,22.23
2018-11-05T20:26:16.551Z,33.17
2018-11-05T20:28:45.226Z,28.83
2018-11-05T20:31:13.812Z,21.13
2018-11-05T20:33:42.456Z,24.10
2018-11-05T20:36:10.688Z,20.70
2018-11-05T20:38:39.153Z,19.90
2018-11-05T20:41:07.564Z,35.33
2018-11-05T20:43:36.018Z,35.13
2018-11-05T20:46:04.397Z,27.40
2018-11-05T20:48:32.771Z,24.53
2018-11-05T20:51:01.308Z,23.43
2018-11-05T20:53:29.732Z,22.27
2018-11-05T20:55:58.138Z,22.90
2018-11-05T20:58:26.591Z,22.07
2018-11-05T21:00:55.020Z,22.40
2018-11-05T21:03:23.480Z,20.17
2018-11-05T21:05:51.885Z,22.10
2018-11-05T21:08:20.335Z,23.20
2018-11-05T21:10:49.135Z,25.03
2018-11-05T21:13:17.538Z,24.40
2018-11-05T21:15:45.991Z,25.20
2018-11-05T21:18:14.403Z,24.77
2018-11-05T21:20:42.839Z,24.63
2018-11-05T21:23:11.220Z,25.53
2018-11-05T21:25:39.664Z,26.20
2018-11-05T21:28:09.323Z,24.13
2018-11-05T21:30:37.827Z,26.40
2018-11-05T21:33:06.350Z,27.73
2018-11-05T21:35:34.746Z,26.77
2018-11-05T21:38:03.190Z,27.33
2018-11-05T21:40:31.638Z,27.20
2018-11-05T21:43:00.166Z,28.37
2018-11-05T21:45:28.529Z,26.73
2018-11-05T21:47:57.041Z,25.90
2018-11-05T21:50:25.632Z,26.47
2018-11-05T21:52:54.073Z,28.40
2018-11-05T21:55:22.472Z,27.93
2018-11-05T21:57:50.948Z,29.13
2018-11-05T22:00:21.399Z,28.77
2018-11-05T22:02:58.261Z,29.40
2018-11-05T22:05:26.791Z,28.00
2018-11-05T22:07:55.253Z,31.70
2018-11-05T22:10:23.765Z,29.00
2018-11-05T22:12:52.118Z,30.63
2018-11-05T22:15:20.539Z,29.97
2018-11-05T22:17:48.936Z,28.83
2018-11-05T22:20:17.398Z,30.57
2018-11-05T22:22:45.854Z,28.37
2018-11-05T22:25:14.267Z,28.30
2018-11-05T22:27:42.639Z,31.13
2018-11-05T22:30:11.765Z,29.43
2018-11-05T22:32:40.182Z,29.90
2018-11-05T22:35:08.667Z,31.80
2018-11-05T22:37:37.323Z,29.63
2018-11-05T22:40:07.843Z,29.83
2018-11-05T22:42:36.401Z,28.90
2018-11-05T22:45:04.960Z,32.90
2018-11-05T22:47:33.459Z,31.37
2018-11-05T22:50:01.893Z,31.17
2018-11-05T22:52:30.338Z,30.97
2018-11-05T22:54:58.736Z,31.50
2018-11-05T22:57:27.075Z,30.60
2018-11-05T22:59:55.626Z,32.53
2018-11-05T23:02:24.031Z,33.63
2018-11-05T23:04:52.533Z,32.40
2018-11-05T23:07:21.056Z,32.27
2018-11-05T23:09:49.392Z,31.90
2018-11-05T23:12:18.029Z,31.27
2018-11-05T23:14:46.348Z,39.17
2018-11-05T23:17:14.776Z,34.47
2018-11-05T23:19:43.148Z,30.87
2018-11-05T23:22:12.460Z,30.77
2018-11-05T23:24:40.785Z,29.50
2018-11-05T23:27:09.191Z,31.20
2018-11-05T23:29:37.515Z,31.70
2018-11-05T23:32:06.064Z,29.50
2018-11-05T23:34:34.490Z,28.70
2018-11-05T23:37:02.824Z,30.00
2018-11-05T23:39:31.203Z,30.90
2018-11-05T23:42:00.709Z,28.90
2018-11-05T23:44:29.154Z,29.60
2018-11-05T23:46:57.928Z,28.37
2018-11-05T23:49:26.371Z,29.43
2018-11-05T23:51:55.058Z,29.27
2018-11-05T23:54:23.295Z,30.10
2018-11-05T23:56:51.645Z,28.07
2018-11-05T23:59:19.964Z,29.60
